createdAt,value
2022-09-04T00:00:21.098Z,19.59
2022-09-04T00:02:57.322Z,19.67
2022-09-04T00:05:30.988Z,19.68
2022-09-04T00:08:07.230Z,19.48
2022-09-04T00:10:56.732Z,19.33
2022-09-04T00:13:31.833Z,19.41
2022-09-04T00:16:20.166Z,19.51
2022-09-04T00:18:56.548Z,19.49
2022-09-04T00:21:29.814Z,19.55
2022-09-04T00:24:04.387Z,19.48
2022-09-04T00:26:43.689Z,19.49
2022-09-04T00:29:42.006Z,19.57
2022-09-04T00:32:13.903Z,19.59
2022-09-04T00:35:20.415Z,19.51
2022-09-04T00:37:47.826Z,19.53
2022-09-04T00:40:43.787Z,19.41
2022-09-04T00:43:29.475Z,19.43
2022-09-04T00:46:34.404Z,19.34
2022-09-04T00:49:23.689Z,19.32
2022-09-04T00:52:03.335Z,19.39
2022-09-04T00:55:01.697Z,19.48
2022-09-04T00:57:55.215Z,19.45
2022-09-04T01:00:25.542Z,19.37
2022-09-04T01:03:17.269Z,19.23
2022-09-04T01:06:18.573Z,19.15
2022-09-04T01:08:59.927Z,19.11
2022-09-04T01:11:36.017Z,19.11
2022-09-04T01:14:10.038Z,19.16
2022-09-04T01:16:46.823Z,19.07
2022-09-04T01:19:20.282Z,19.03
2022-09-04T01:21:57.194Z,18.87
2022-09-04T01:24:47.716Z,18.87
2022-09-04T01:27:30.252Z,18.85
2022-09-04T01:30:14.820Z,18.88
2022-09-04T01:32:56.921Z,18.83
2022-09-04T01:35:30.679Z,18.82
2022-09-04T01:38:16.731Z,18.84
2022-09-04T01:41:07.369Z,18.83
2022-09-04T01:43:34.775Z,18.85
2022-09-04T01:46:23.759Z,18.82
2022-09-04T01:48:56.942Z,18.78
2022-09-04T01:51:45.807Z,18.84
2022-09-04T01:54:35.257Z,18.90
2022-09-04T01:57:20.789Z,18.99
2022-09-04T01:59:57.542Z,19.11
2022-09-04T02:02:27.742Z,19.17
2022-09-04T02:05:09.185Z,19.31
2022-09-04T02:07:47.061Z,19.28
2022-09-04T02:10:17.562Z,19.20
2022-09-04T02:12:51.013Z,19.14
2022-09-04T02:15:18.248Z,18.98
2022-09-04T02:17:45.388Z,18.94
2022-09-04T02:20:12.550Z,18.93
2022-09-04T02:22:45.064Z,19.01
2022-09-04T02:25:31.060Z,19.02
2022-09-04T02:28:07.966Z,18.94
2022-09-04T02:30:45.296Z,18.91
2022-09-04T02:33:16.170Z,18.92
2022-09-04T02:35:43.285Z,18.87
2022-09-04T02:38:10.352Z,18.97
2022-09-04T02:40:51.645Z,19.11
2022-09-04T02:43:19.354Z,19.16
2022-09-04T02:46:01.998Z,18.94
2022-09-04T02:48:41.033Z,18.93
2022-09-04T02:51:13.795Z,18.90
2022-09-04T02:53:57.861Z,18.92
2022-09-04T02:56:31.430Z,19.01
2022-09-04T02:59:18.832Z,19.11
2022-09-04T03:01:53.466Z,19.21
2022-09-04T03:04:30.889Z,19.24
2022-09-04T03:07:16.676Z,19.31
2022-09-04T03:09:48.704Z,19.45
2022-09-04T03:12:26.603Z,19.48
2022-09-04T03:15:12.166Z,19.50
2022-09-04T03:17:48.842Z,19.64
2022-09-04T03:20:24.274Z,19.59
2022-09-04T03:23:01.585Z,19.60
2022-09-04T03:25:38.075Z,19.63
2022-09-04T03:28:08.514Z,19.58
2022-09-04T03:30:36.218Z,19.72
2022-09-04T03:33:08.767Z,19.65
2022-09-04T03:35:50.766Z,19.72
2022-09-04T03:38:38.550Z,19.77
2022-09-04T03:41:06.176Z,19.67
2022-09-04T03:43:45.266Z,19.57
2022-09-04T03:46:48.163Z,19.56
2022-09-04T03:49:27.447Z,19.59
2022-09-04T03:52:01.586Z,19.53
2022-09-04T03:54:32.325Z,19.50
2022-09-04T03:57:06.358Z,19.46
2022-09-04T03:59:46.514Z,19.33
2022-09-04T04:02:34.861Z,19.21
2022-09-04T04:05:11.350Z,19.19
2022-09-04T04:07:47.980Z,19.06
2022-09-04T04:10:33.887Z,19.06
2022-09-04T04:13:16.468Z,18.96
2022-09-04T04:15:43.729Z,18.93
2022-09-04T04:18:20.158Z,18.91
2022-09-04T04:20:47.749Z,18.97
2022-09-04T04:23:43.923Z,18.95
2022-09-04T04:26:11.138Z,19.13
2022-09-04T04:28:48.345Z,19.01
2022-09-04T04:31:41.689Z,18.83
2022-09-04T04:34:33.530Z,18.66
2022-09-04T04:37:11.558Z,18.65
2022-09-04T04:39:52.306Z,18.71
2022-09-04T04:42:22.592Z,18.67
2022-09-04T04:45:08.170Z,18.86
2022-09-04T04:47:45.525Z,18.77
2022-09-04T04:50:30.319Z,18.73
2022-09-04T04:53:24.884Z,18.74
2022-09-04T04:56:15.395Z,18.83
2022-09-04T04:59:01.909Z,18.73
2022-09-04T05:01:32.172Z,18.74
2022-09-04T05:04:04.143Z,18.83
2022-09-04T05:06:47.513Z,18.83
2022-09-04T05:09:34.768Z,18.81
2022-09-04T05:12:50.176Z,18.91
2022-09-04T05:15:36.001Z,18.85
2022-09-04T05:18:20.821Z,18.82
2022-09-04T05:20:58.062Z,18.92
2022-09-04T05:23:36.586Z,18.81
2022-09-04T05:26:11.491Z,18.81
2022-09-04T05:28:50.650Z,18.74
2022-09-04T05:31:37.832Z,18.87
2022-09-04T05:34:17.858Z,18.83
2022-09-04T05:37:00.171Z,18.78
2022-09-04T05:39:36.579Z,18.79
2022-09-04T05:42:37.902Z,18.85
2022-09-04T05:45:19.217Z,19.04
2022-09-04T05:47:58.344Z,19.02
2022-09-04T05:50:43.639Z,18.90
2022-09-04T05:53:50.007Z,18.91
2022-09-04T05:56:30.263Z,19.00
2022-09-04T05:59:36.088Z,19.05
2022-09-04T06:02:17.604Z,19.07
2022-09-04T06:05:23.329Z,19.05
2022-09-04T06:08:43.698Z,19.02
2022-09-04T06:11:29.183Z,19.12
2022-09-04T06:14:17.819Z,19.13
2022-09-04T06:17:12.942Z,19.24
2022-09-04T06:20:12.690Z,19.22
2022-09-04T06:23:22.533Z,19.34
2022-09-04T06:26:57.882Z,19.35
2022-09-04T06:30:02.826Z,19.44
2022-09-04T06:32:52.459Z,19.66
2022-09-04T06:35:33.075Z,19.79
2022-09-04T06:38:22.403Z,19.91
2022-09-04T06:40:49.813Z,20.24
2022-09-04T06:43:24.670Z,20.38
2022-09-04T06:46:09.142Z,20.45
2022-09-04T06:49:10.207Z,20.61
2022-09-04T06:51:47.425Z,20.83
2022-09-04T06:54:52.421Z,21.05
2022-09-04T06:57:51.311Z,21.14
2022-09-04T07:00:20.051Z,21.27
2022-09-04T07:03:11.898Z,21.51
2022-09-04T07:06:01.942Z,21.57
2022-09-04T07:08:52.021Z,21.62
2022-09-04T07:11:37.533Z,21.71
2022-09-04T07:14:17.460Z,21.81
2022-09-04T07:16:51.081Z,21.91
2022-09-04T07:19:45.993Z,22.07
2022-09-04T07:22:50.501Z,22.19
2022-09-04T07:25:29.883Z,22.28
2022-09-04T07:28:12.162Z,22.52
2022-09-04T07:31:11.991Z,22.52
2022-09-04T07:33:48.580Z,22.83
2022-09-04T07:36:39.103Z,22.63
2022-09-04T07:39:30.981Z,22.65
2022-09-04T07:42:21.027Z,22.72
2022-09-04T07:45:05.918Z,22.94
2022-09-04T07:47:47.695Z,23.23
2022-09-04T07:50:35.818Z,23.38
2022-09-04T07:53:13.687Z,23.44
2022-09-04T07:55:46.834Z,23.48
2022-09-04T07:58:23.142Z,23.66
2022-09-04T08:00:56.922Z,23.87
2022-09-04T08:03:56.018Z,24.02
2022-09-04T08:06:53.847Z,23.78
2022-09-04T08:09:48.585Z,23.74
2022-09-04T08:12:30.654Z,23.81
2022-09-04T08:15:15.920Z,23.88
2022-09-04T08:17:59.444Z,23.73
2022-09-04T08:20:40.782Z,23.12
2022-09-04T08:23:28.454Z,23.53
2022-09-04T08:26:18.301Z,24.12
2022-09-04T08:29:00.651Z,24.47
2022-09-04T08:31:32.651Z,24.77
2022-09-04T08:34:07.623Z,24.86
2022-09-04T08:36:40.905Z,25.03
2022-09-04T08:39:25.071Z,24.95
2022-09-04T08:42:24.841Z,24.57
2022-09-04T08:45:15.323Z,24.83
2022-09-04T08:48:22.877Z,25.09
2022-09-04T08:51:11.837Z,25.11
2022-09-04T08:53:42.263Z,25.30
2022-09-04T08:56:23.820Z,25.31
2022-09-04T08:59:24.957Z,25.25
2022-09-04T09:02:12.029Z,25.42
2022-09-04T09:05:25.838Z,25.43
2022-09-04T09:07:55.966Z,25.46
2022-09-04T09:10:51.625Z,25.16
2022-09-04T09:13:34.721Z,25.53
2022-09-04T09:16:20.961Z,25.74
2022-09-04T09:19:11.972Z,25.77
2022-09-04T09:21:42.258Z,25.78
2022-09-04T09:24:18.639Z,25.56
2022-09-04T09:27:11.225Z,25.70
2022-09-04T09:29:57.023Z,25.84
2022-09-04T09:32:30.753Z,25.88
2022-09-04T09:35:37.125Z,26.05
2022-09-04T09:38:37.976Z,26.19
2022-09-04T09:41:28.495Z,25.98
2022-09-04T09:44:20.685Z,26.26
2022-09-04T09:47:09.901Z,25.96
2022-09-04T09:49:49.390Z,26.14
2022-09-04T09:52:28.589Z,25.99
2022-09-04T09:55:03.353Z,26.14
2022-09-04T09:58:02.322Z,26.26
2022-09-04T10:00:59.047Z,26.42
2022-09-04T10:03:39.179Z,26.62
2022-09-04T10:06:20.670Z,26.34
2022-09-04T10:09:00.326Z,26.51
2022-09-04T10:11:48.875Z,26.29
2022-09-04T10:14:25.652Z,26.50
2022-09-04T10:17:05.420Z,26.64
2022-09-04T10:19:42.327Z,26.49
2022-09-04T10:22:37.647Z,26.57
2022-09-04T10:25:29.168Z,26.78
2022-09-04T10:28:15.419Z,26.98
2022-09-04T10:31:01.745Z,27.12
2022-09-04T10:33:55.130Z,26.92
2022-09-04T10:36:30.981Z,27.10
2022-09-04T10:39:41.646Z,27.21
2022-09-04T10:42:31.779Z,26.93
2022-09-04T10:45:32.689Z,27.23
2022-09-04T10:48:12.670Z,27.25
2022-09-04T10:51:04.800Z,27.11
2022-09-04T10:53:37.498Z,27.07
2022-09-04T10:56:16.349Z,26.24
2022-09-04T10:59:11.442Z,26.53
2022-09-04T11:02:17.104Z,27.08
2022-09-04T11:05:08.131Z,27.33
2022-09-04T11:07:42.972Z,27.24
2022-09-04T11:10:36.441Z,26.78
2022-09-04T11:13:29.027Z,27.07
2022-09-04T11:16:26.522Z,27.17
2022-09-04T11:18:57.031Z,26.88
2022-09-04T11:21:42.868Z,27.18
2022-09-04T11:24:28.545Z,26.70
2022-09-04T11:27:24.038Z,26.48
2022-09-04T11:30:16.916Z,26.13
2022-09-04T11:33:11.210Z,26.18
2022-09-04T11:35:57.118Z,25.76
2022-09-04T11:39:01.632Z,25.84
2022-09-04T11:41:31.787Z,26.14
2022-09-04T11:44:11.759Z,26.47
2022-09-04T11:47:04.193Z,26.63
2022-09-04T11:49:39.861Z,26.72
2022-09-04T11:52:07.680Z,26.76
2022-09-04T11:54:37.927Z,26.83
2022-09-04T11:57:15.612Z,26.95
2022-09-04T12:00:01.313Z,26.73
2022-09-04T12:02:43.801Z,26.75
2022-09-04T12:05:32.289Z,27.05
2022-09-04T12:08:24.518Z,27.49
2022-09-04T12:11:19.930Z,27.20
2022-09-04T12:14:12.154Z,27.17
2022-09-04T12:17:18.089Z,27.39
2022-09-04T12:20:07.874Z,27.55
2022-09-04T12:22:52.420Z,27.84
2022-09-04T12:25:23.606Z,28.11
2022-09-04T12:28:11.103Z,28.21
2022-09-04T12:30:38.497Z,28.33
2022-09-04T12:33:24.718Z,28.25
2022-09-04T12:36:22.650Z,28.12
2022-09-04T12:39:21.038Z,27.50
2022-09-04T12:42:07.973Z,27.51
2022-09-04T12:45:04.138Z,27.48
2022-09-04T12:47:34.250Z,27.50
2022-09-04T12:50:45.374Z,27.56
2022-09-04T12:53:34.293Z,27.56
2022-09-04T12:56:16.951Z,27.28
2022-09-04T12:59:16.174Z,27.29
2022-09-04T13:02:11.350Z,27.77
2022-09-04T13:05:06.088Z,27.98
2022-09-04T13:08:03.668Z,28.30
2022-09-04T13:10:41.588Z,28.35
2022-09-04T13:13:30.137Z,28.13
2022-09-04T13:16:17.285Z,28.17
2022-09-04T13:18:58.716Z,28.06
2022-09-04T13:22:28.303Z,28.50
2022-09-04T13:25:32.741Z,28.27
2022-09-04T13:28:05.899Z,28.54
2022-09-04T13:30:39.776Z,28.75
2022-09-04T13:33:40.847Z,28.94
2022-09-04T13:36:25.461Z,29.06
2022-09-04T13:39:19.294Z,29.02
2022-09-04T13:41:47.984Z,28.50
2022-09-04T13:44:51.016Z,28.03
2022-09-04T13:47:32.516Z,28.09
2022-09-04T13:50:14.192Z,28.17
2022-09-04T13:53:00.057Z,28.42
2022-09-04T13:55:33.151Z,28.31
2022-09-04T13:58:13.413Z,28.52
2022-09-04T14:00:56.866Z,28.66
2022-09-04T14:03:35.881Z,28.75
2022-09-04T14:06:08.183Z,28.45
2022-09-04T14:08:39.849Z,28.45
2022-09-04T14:11:16.479Z,28.46
2022-09-04T14:13:52.680Z,28.05
2022-09-04T14:16:23.009Z,28.19
2022-09-04T14:19:00.128Z,28.32
2022-09-04T14:21:46.066Z,28.20
2022-09-04T14:24:38.572Z,27.73
2022-09-04T14:27:45.247Z,27.88
2022-09-04T14:30:15.989Z,27.62
2022-09-04T14:32:57.715Z,27.63
2022-09-04T14:35:36.461Z,27.71
2022-09-04T14:38:41.603Z,27.99
2022-09-04T14:41:36.016Z,28.25
2022-09-04T14:44:12.738Z,27.98
2022-09-04T14:46:59.265Z,28.07
2022-09-04T14:49:32.035Z,28.20
2022-09-04T14:52:10.350Z,28.13
2022-09-04T14:54:43.610Z,27.98
2022-09-04T14:57:41.381Z,27.89
2022-09-04T15:00:09.649Z,27.86
2022-09-04T15:02:44.397Z,27.92
2022-09-04T15:05:17.962Z,27.73
2022-09-04T15:07:50.536Z,27.54
2022-09-04T15:10:53.747Z,27.52
2022-09-04T15:13:27.093Z,27.68
2022-09-04T15:16:02.298Z,27.73
2022-09-04T15:18:40.771Z,27.59
2022-09-04T15:21:21.131Z,27.58
2022-09-04T15:23:52.415Z,27.91
2022-09-04T15:26:28.322Z,28.01
2022-09-04T15:29:05.293Z,28.00
2022-09-04T15:31:36.608Z,28.34
2022-09-04T15:34:09.070Z,28.41
2022-09-04T15:36:37.890Z,28.22
2022-09-04T15:39:10.894Z,28.43
2022-09-04T15:41:49.987Z,28.13
2022-09-04T15:44:39.693Z,27.84
2022-09-04T15:47:25.691Z,28.05
2022-09-04T15:50:04.394Z,27.90
2022-09-04T15:52:52.541Z,27.64
2022-09-04T15:55:24.050Z,27.79
2022-09-04T15:58:11.062Z,27.63
2022-09-04T16:01:00.976Z,27.51
2022-09-04T16:03:40.588Z,27.58
2022-09-04T16:06:20.080Z,27.97
2022-09-04T16:09:03.609Z,27.71
2022-09-04T16:11:34.437Z,27.52
2022-09-04T16:14:22.874Z,27.74
2022-09-04T16:17:06.208Z,27.52
2022-09-04T16:19:45.644Z,27.44
2022-09-04T16:22:43.985Z,27.42
2022-09-04T16:25:31.585Z,27.65
2022-09-04T16:28:26.710Z,27.54
2022-09-04T16:31:15.472Z,27.25
2022-09-04T16:33:58.505Z,27.42
2022-09-04T16:36:41.499Z,27.58
2022-09-04T16:39:33.044Z,27.56
2022-09-04T16:42:10.371Z,27.42
2022-09-04T16:44:47.718Z,27.48
2022-09-04T16:47:22.733Z,27.55
2022-09-04T16:49:56.183Z,27.23
2022-09-04T16:52:34.507Z,27.10
2022-09-04T16:55:08.559Z,26.99
2022-09-04T16:58:07.467Z,27.00
2022-09-04T17:00:59.953Z,26.87
2022-09-04T17:03:47.356Z,26.61
2022-09-04T17:06:33.783Z,26.40
2022-09-04T17:09:32.241Z,26.30
2022-09-04T17:12:17.744Z,26.03
2022-09-04T17:15:10.602Z,25.84
2022-09-04T17:17:42.592Z,25.58
2022-09-04T17:20:20.863Z,25.35
2022-09-04T17:28:56.216Z,25.18
2022-09-04T17:29:18.800Z,24.98
2022-09-04T17:29:34.330Z,24.75
2022-09-04T17:32:00.790Z,24.57
2022-09-04T17:40:33.635Z,24.43
2022-09-04T17:40:53.991Z,24.33
2022-09-04T17:41:47.375Z,24.21
2022-09-04T17:44:40.763Z,24.12
2022-09-04T17:47:18.361Z,23.97
2022-09-04T17:49:49.542Z,23.95
2022-09-04T17:52:32.582Z,23.90
2022-09-04T17:55:08.210Z,24.16
2022-09-04T17:57:53.885Z,24.28
2022-09-04T18:00:24.962Z,24.30
2022-09-04T18:02:59.447Z,24.23
2022-09-04T18:05:34.580Z,24.14
2022-09-04T18:08:11.795Z,24.08
2022-09-04T18:10:39.130Z,24.04
2022-09-04T18:13:36.684Z,23.97
2022-09-04T18:16:20.951Z,23.97
2022-09-04T18:18:52.387Z,24.01
2022-09-04T18:21:26.647Z,23.92
2022-09-04T18:24:05.352Z,23.91
2022-09-04T18:26:40.772Z,23.75
2022-09-04T18:31:14.428Z,23.70
2022-09-04T18:37:16.258Z,23.41
2022-09-04T18:37:25.653Z,23.39
2022-09-04T18:39:17.394Z,23.46
2022-09-04T18:50:23.776Z,23.41
2022-09-04T18:50:35.752Z,23.45
2022-09-04T18:50:37.889Z,23.29
2022-09-04T18:51:38.832Z,23.43
2022-09-04T18:54:09.735Z,23.37
2022-09-04T18:56:44.483Z,23.32
2022-09-04T18:59:18.633Z,23.28
2022-09-04T19:02:04.389Z,23.36
2022-09-04T19:04:31.752Z,23.23
2022-09-04T19:07:08.240Z,23.21
2022-09-04T19:09:51.207Z,23.16
2022-09-04T19:12:35.768Z,23.11
2022-09-04T19:15:27.409Z,23.11
2022-09-04T19:18:26.785Z,23.01
2022-09-04T19:21:04.713Z,22.98
2022-09-04T19:23:41.747Z,22.91
2022-09-04T19:26:26.092Z,22.84
2022-09-04T19:29:13.302Z,22.75
2022-09-04T19:31:52.490Z,22.73
2022-09-04T19:34:37.018Z,22.74
2022-09-04T19:42:04.706Z,22.73
2022-09-04T19:46:05.893Z,22.59
2022-09-04T19:46:12.819Z,22.52
2022-09-04T19:46:29.345Z,22.52
2022-09-04T19:53:17.465Z,22.55
2022-09-04T19:53:32.177Z,22.58
2022-09-04T19:55:25.265Z,22.63
2022-09-04T19:58:20.966Z,22.44
2022-09-04T20:00:58.299Z,22.42
2022-09-04T20:03:30.480Z,22.31
2022-09-04T20:06:20.220Z,22.33
2022-09-04T20:09:33.086Z,22.22
2022-09-04T20:12:28.786Z,22.28
2022-09-04T20:15:16.619Z,22.25
2022-09-04T20:18:12.845Z,22.27
2022-09-04T20:20:56.316Z,22.23
2022-09-04T20:23:42.757Z,22.19
2022-09-04T20:26:22.894Z,22.20
2022-09-04T20:28:58.647Z,22.16
2022-09-04T20:31:45.213Z,22.14
2022-09-04T20:34:25.399Z,22.16
2022-09-04T20:37:02.242Z,22.13
2022-09-04T20:39:41.779Z,22.10
2022-09-04T20:42:21.833Z,22.09
2022-09-04T20:48:12.610Z,22.02
2022-09-04T20:52:44.026Z,22.03
2022-09-04T20:52:55.882Z,21.92
2022-09-04T20:54:10.599Z,21.99
2022-09-04T21:00:14.708Z,21.94
2022-09-04T21:03:19.966Z,22.08
2022-09-04T21:03:20.093Z,22.06
2022-09-04T21:06:25.288Z,22.08
2022-09-04T21:09:31.383Z,22.13
2022-09-04T21:12:25.601Z,21.88
2022-09-04T21:15:12.871Z,21.80
2022-09-04T21:18:02.097Z,21.79
2022-09-04T21:20:59.131Z,21.66
2022-09-04T21:23:31.012Z,21.59
2022-09-04T21:26:26.411Z,21.60
2022-09-04T21:29:26.026Z,21.54
2022-09-04T21:32:32.113Z,21.59
2022-09-04T21:35:25.692Z,21.65
2022-09-04T21:38:15.223Z,21.68
2022-09-04T21:41:01.285Z,21.69
2022-09-04T21:44:06.278Z,21.73
2022-09-04T21:47:11.332Z,21.64
2022-09-04T21:49:58.607Z,21.65
2022-09-04T21:52:28.944Z,21.65
2022-09-04T22:01:11.993Z,21.65
2022-09-04T22:02:37.031Z,21.57
2022-09-04T22:02:45.023Z,21.54
2022-09-04T22:04:22.547Z,21.50
2022-09-04T22:12:13.057Z,21.36
2022-09-04T22:13:41.992Z,21.49
2022-09-04T22:13:42.208Z,21.42
2022-09-04T22:16:06.976Z,21.45
2022-09-04T22:18:56.268Z,21.41
2022-09-04T22:21:47.486Z,21.49
2022-09-04T22:24:54.142Z,21.61
2022-09-04T22:28:08.878Z,21.60
2022-09-04T22:30:55.683Z,21.57
2022-09-04T22:34:16.418Z,21.56
2022-09-04T22:37:12.146Z,21.33
2022-09-04T22:40:17.482Z,21.30
2022-09-04T22:43:04.221Z,21.22
2022-09-04T22:46:06.338Z,21.13
2022-09-04T22:49:12.783Z,21.00
2022-09-04T22:51:58.688Z,20.93
2022-09-04T22:54:50.308Z,21.01
2022-09-04T22:57:43.933Z,20.92
2022-09-04T23:00:17.338Z,20.87
2022-09-04T23:03:14.013Z,21.00
2022-09-04T23:07:25.958Z,21.11
2022-09-04T23:13:46.136Z,21.04
2022-09-04T23:14:00.810Z,21.04
2022-09-04T23:15:35.426Z,21.16
2022-09-04T23:22:09.951Z,20.99
2022-09-04T23:26:38.495Z,20.93
2022-09-04T23:26:49.987Z,20.89
2022-09-04T23:27:40.046Z,20.75
2022-09-04T23:30:25.781Z,20.73
2022-09-04T23:32:54.705Z,20.85
2022-09-04T23:35:34.162Z,20.83
2022-09-04T23:38:26.515Z,20.83
2022-09-04T23:41:01.934Z,20.78
2022-09-04T23:43:32.653Z,20.69
2022-09-04T23:46:18.463Z,20.63
2022-09-04T23:49:06.617Z,20.56
2022-09-04T23:51:46.798Z,20.48
2022-09-04T23:55:03.429Z,20.50
2022-09-04T23:57:47.643Z,20.69
